Time;durP1;ratioP1;P1;durP2;ratioP2;P2;SDS_P1;SDS_P2;PMS_P1;PMS_P2;Temp;Humidity;BMP_temperature;BMP_pressure;BME280_temperature;BME280_humidity;BME280_pressure;Samples;Min_cycle;Max_cycle;Signal;HPM_P1;HPM_P2
2022/09/29 00:01:14;;;;;;;2.85;1.95;;;14.40;71.20;;;;;;5108456;28;20493;-74
2022/09/29 00:03:40;;;;;;;2.47;1.83;;;14.40;71.20;;;;;;5100376;28;20030;-75
2022/09/29 00:06:13;;;;;;;4.43;2.08;;;14.40;71.30;;;;;;5103739;28;20024;-74
2022/09/29 00:08:38;;;;;;;2.70;1.80;;;14.40;71.10;;;;;;5095135;28;20028;-75
2022/09/29 00:11:10;;;;;;;3.17;1.80;;;14.40;71.00;;;;;;5095948;28;20035;-74
2022/09/29 00:13:35;;;;;;;2.80;1.75;;;14.40;70.80;;;;;;5106658;28;20023;-75
2022/09/29 00:16:03;;;;;;;8.13;2.17;;;14.40;70.80;;;;;;5102943;28;20024;-74
2022/09/29 00:18:30;;;;;;;2.72;2.08;;;14.30;70.70;;;;;;5083404;28;20366;-75
2022/09/29 00:21:20;;;;;;;6.72;2.38;;;14.30;70.80;;;;;;5087195;28;20500;-75
2022/09/29 00:23:48;;;;;;;2.28;1.90;;;14.30;70.60;;;;;;5087843;28;20386;-74
2022/09/29 00:26:20;;;;;;;3.00;1.83;;;14.30;70.70;;;;;;5087463;28;20027;-74
2022/09/29 00:28:55;;;;;;;4.22;1.92;;;14.30;70.70;;;;;;5085334;28;20051;-74
2022/09/29 00:31:23;;;;;;;3.15;2.00;;;14.30;70.90;;;;;;5085116;28;20377;-74
2022/09/29 00:33:49;;;;;;;2.53;1.88;;;14.30;70.80;;;;;;5080635;28;20112;-74
2022/09/29 00:36:18;;;;;;;3.58;1.80;;;14.30;70.70;;;;;;5084179;28;20024;-74
2022/09/29 00:38:46;;;;;;;4.20;2.10;;;14.30;70.70;;;;;;5084330;28;20024;-74
2022/09/29 00:41:23;;;;;;;4.88;2.00;;;14.30;70.70;;;;;;5087972;28;20031;-74
2022/09/29 00:43:59;;;;;;;3.72;1.98;;;14.30;70.60;;;;;;5086227;28;20017;-74
2022/09/29 00:46:49;;;;;;;2.38;1.80;;;14.30;70.70;;;;;;5086352;28;20082;-74
2022/09/29 00:49:27;;;;;;;2.80;1.90;;;14.30;71.00;;;;;;5087595;28;20019;-74
2022/09/29 00:52:11;;;;;;;2.55;1.90;;;14.30;71.10;;;;;;5087035;28;20022;-74
2022/09/29 00:54:57;;;;;;;3.63;2.13;;;14.30;71.10;;;;;;5085776;28;20358;-74
2022/09/29 00:57:28;;;;;;;3.70;2.20;;;14.30;71.20;;;;;;5086973;28;20027;-74
2022/09/29 01:00:01;;;;;;;2.40;2.00;;;14.30;71.10;;;;;;5089132;28;20043;-74
2022/09/29 01:02:32;;;;;;;3.47;2.00;;;14.30;70.70;;;;;;5088660;28;20020;-73
2022/09/29 01:04:59;;;;;;;2.83;1.90;;;14.30;70.50;;;;;;5086072;28;20096;-74
2022/09/29 01:07:26;;;;;;;2.58;1.80;;;14.30;70.50;;;;;;5088263;28;20307;-74
2022/09/29 01:09:55;;;;;;;3.10;1.80;;;14.30;70.60;;;;;;5085408;28;20044;-74
2022/09/29 01:12:22;;;;;;;2.88;1.92;;;14.30;70.60;;;;;;5084182;28;20017;-74
2022/09/29 01:14:48;;;;;;;2.63;1.90;;;14.30;70.30;;;;;;5084608;28;20024;-74
2022/09/29 01:17:15;;;;;;;2.75;2.00;;;14.30;70.10;;;;;;5088702;28;20024;-74
2022/09/29 01:19:50;;;;;;;4.65;1.70;;;14.20;69.90;;;;;;5089095;28;20012;-74
2022/09/29 01:23:00;;;;;;;2.47;1.88;;;14.20;69.80;;;;;;5087115;28;20031;-74
2022/09/29 01:25:44;;;;;;;1.42;1.33;;;14.10;69.90;;;;;;5047548;28;20036;-74
2022/09/29 01:28:36;;;;;;;3.22;1.75;;;14.00;69.80;;;;;;5048232;28;20028;-73
2022/09/29 01:31:13;;;;;;;1.55;1.45;;;14.00;69.90;;;;;;5038880;28;20078;-74
2022/09/29 01:33:43;;;;;;;1.52;1.42;;;13.90;69.80;;;;;;5087404;28;20504;-73
2022/09/29 01:36:34;;;;;;;3.83;1.98;;;13.80;69.80;;;;;;5088810;28;20137;-73
2022/09/29 01:39:24;;;;;;;2.75;2.10;;;13.70;70.00;;;;;;5082245;28;20495;-74
2022/09/29 01:41:58;;;;;;;1.48;1.17;;;13.70;70.20;;;;;;5082653;28;20020;-74
2022/09/29 01:44:51;;;;;;;6.88;2.08;;;13.60;70.40;;;;;;5080390;28;20102;-75
2022/09/29 01:47:33;;;;;;;2.95;2.22;;;13.60;70.80;;;;;;5081865;28;20040;-74
2022/09/29 01:50:05;;;;;;;7.18;2.00;;;13.60;71.00;;;;;;5082282;28;20452;-74
2022/09/29 01:52:37;;;;;;;2.60;1.95;;;13.60;71.20;;;;;;5081997;28;20012;-74
2022/09/29 01:55:19;;;;;;;1.83;1.52;;;13.60;71.40;;;;;;5081567;28;20086;-74
2022/09/29 01:57:50;;;;;;;2.03;1.33;;;13.60;71.70;;;;;;5081974;28;20037;-74
2022/09/29 02:00:18;;;;;;;2.45;1.55;;;13.60;71.80;;;;;;5084267;28;20103;-74
2022/09/29 02:02:59;;;;;;;3.28;1.50;;;13.60;71.80;;;;;;5081769;28;20169;-75
2022/09/29 02:05:32;;;;;;;1.80;1.50;;;13.70;71.90;;;;;;5081928;28;20108;-74
2022/09/29 02:08:11;;;;;;;1.92;1.45;;;13.70;72.00;;;;;;5083850;28;20452;-73
2022/09/29 02:10:47;;;;;;;1.83;1.33;;;13.70;72.00;;;;;;5081874;28;20069;-74
2022/09/29 02:13:15;;;;;;;3.08;1.65;;;13.70;72.00;;;;;;5081886;28;20081;-74
2022/09/29 02:15:47;;;;;;;2.22;1.60;;;13.80;72.00;;;;;;5081032;28;20095;-74
2022/09/29 02:18:21;;;;;;;3.00;1.73;;;13.80;71.90;;;;;;5081797;28;20012;-74
2022/09/29 02:20:48;;;;;;;1.85;1.40;;;13.80;71.60;;;;;;5081716;28;20031;-74
2022/09/29 02:23:15;;;;;;;1.40;1.30;;;13.80;71.60;;;;;;5080922;28;20021;-74
2022/09/29 02:25:42;;;;;;;5.40;3.97;;;13.80;71.60;;;;;;5087189;28;20052;-74
2022/09/29 02:28:09;;;;;;;3.38;2.50;;;13.80;71.60;;;;;;5075380;28;20390;-74
2022/09/29 02:30:35;;;;;;;3.90;1.80;;;13.80;71.70;;;;;;5090152;28;20385;-74
2022/09/29 02:33:01;;;;;;;1.95;1.55;;;13.90;71.70;;;;;;5095836;28;20025;-74
2022/09/29 02:36:17;;;;;;;3.88;1.83;;;13.80;71.70;;;;;;5095592;28;20016;-74
2022/09/29 02:39:00;;;;;;;2.58;1.40;;;13.80;71.70;;;;;;5086203;28;20119;-73
2022/09/29 02:41:45;;;;;;;2.83;1.35;;;13.90;71.80;;;;;;5090541;28;20029;-74
2022/09/29 02:44:20;;;;;;;2.05;1.58;;;13.90;71.70;;;;;;5095434;28;20446;-73
2022/09/29 02:46:58;;;;;;;2.55;1.88;;;13.90;72.50;;;;;;5093993;28;20063;-74
2022/09/29 02:50:12;;;;;;;1.40;1.30;;;13.90;71.70;;;;;;5095272;28;20503;-74
2022/09/29 02:53:11;;;;;;;2.47;1.70;;;13.90;71.60;;;;;;5090427;28;20068;-73
2022/09/29 02:55:43;;;;;;;2.30;1.67;;;13.80;71.60;;;;;;5095264;28;20020;-74
2022/09/29 02:58:17;;;;;;;3.72;1.83;;;13.90;71.60;;;;;;5087433;28;20039;-74
2022/09/29 03:00:44;;;;;;;1.98;1.40;;;13.90;71.60;;;;;;5089969;28;20032;-74
2022/09/29 03:03:10;;;;;;;2.28;1.75;;;13.80;71.40;;;;;;5110790;28;20070;-74
2022/09/29 03:05:36;;;;;;;2.17;1.80;;;13.90;71.40;;;;;;5095016;28;20031;-74
2022/09/29 03:08:02;;;;;;;2.33;1.60;;;13.80;71.20;;;;;;5094901;28;20032;-74
2022/09/29 03:10:27;;;;;;;2.30;1.52;;;13.80;71.20;;;;;;5110603;28;20024;-74
2022/09/29 03:12:53;;;;;;;2.47;1.45;;;13.90;71.40;;;;;;5094838;28;20492;-74
2022/09/29 03:15:20;;;;;;;1.98;1.40;;;13.80;71.30;;;;;;5094840;28;20059;-74
2022/09/29 03:17:46;;;;;;;4.57;1.80;;;13.80;71.30;;;;;;5094708;28;20059;-74
2022/09/29 03:20:12;;;;;;;4.82;1.70;;;13.80;71.40;;;;;;5079113;28;20044;-74
2022/09/29 03:22:37;;;;;;;2.40;1.90;;;13.80;71.20;;;;;;5089775;28;20056;-74
2022/09/29 03:25:05;;;;;;;2.92;1.85;;;13.80;71.10;;;;;;5074428;28;20017;-74
2022/09/29 03:27:32;;;;;;;1.92;1.45;;;13.80;71.20;;;;;;5074317;28;20478;-74
2022/09/29 03:29:58;;;;;;;3.33;1.92;;;13.80;71.30;;;;;;5092592;28;20091;-74
2022/09/29 03:32:24;;;;;;;3.15;2.35;;;13.80;71.30;;;;;;5094442;28;20028;-73
2022/09/29 03:34:50;;;;;;;3.25;2.40;;;13.70;71.10;;;;;;5093933;28;20427;-74
2022/09/29 03:37:15;;;;;;;2.72;2.25;;;13.70;71.20;;;;;;5080462;28;20029;-74
2022/09/29 03:39:41;;;;;;;4.90;2.78;;;13.70;71.20;;;;;;5074152;28;20107;-74
2022/09/29 03:42:07;;;;;;;5.80;3.00;;;13.70;71.30;;;;;;5072538;28;20493;-73
2022/09/29 03:44:33;;;;;;;4.68;2.90;;;13.70;71.40;;;;;;5072586;28;20035;-74
2022/09/29 03:46:59;;;;;;;9.60;2.88;;;13.70;71.60;;;;;;5073652;28;20057;-74
2022/09/29 03:49:25;;;;;;;3.35;2.72;;;13.70;71.40;;;;;;5073722;28;20024;-74
2022/09/29 03:51:51;;;;;;;3.97;3.40;;;13.70;71.40;;;;;;5073650;28;20202;-74
2022/09/29 03:54:17;;;;;;;4.75;3.42;;;13.70;71.30;;;;;;5078157;28;20074;-74
2022/09/29 03:56:43;;;;;;;4.95;3.70;;;13.60;71.20;;;;;;5076214;28;20533;-74
2022/09/29 03:59:10;;;;;;;4.53;3.08;;;13.60;71.20;;;;;;5073554;28;20032;-74
2022/09/29 04:01:37;;;;;;;4.75;3.05;;;13.60;71.10;;;;;;5089144;28;20052;-74
2022/09/29 04:04:05;;;;;;;6.78;3.05;;;13.60;71.10;;;;;;5073465;28;20121;-74
2022/09/29 04:06:31;;;;;;;7.45;3.70;;;13.50;71.00;;;;;;5072260;28;20432;-74
2022/09/29 04:08:57;;;;;;;11.85;3.78;;;13.50;71.00;;;;;;5073336;28;20025;-74
2022/09/29 04:11:23;;;;;;;4.07;3.30;;;13.50;70.90;;;;;;5073609;28;20074;-73
2022/09/29 04:13:48;;;;;;;3.65;3.00;;;13.40;70.80;;;;;;5074892;28;20031;-74
2022/09/29 04:16:14;;;;;;;3.47;3.03;;;13.40;70.80;;;;;;5073255;28;20489;-74
2022/09/29 04:18:40;;;;;;;3.65;2.80;;;13.30;70.80;;;;;;5073226;28;20055;-74
2022/09/29 04:21:07;;;;;;;3.78;3.05;;;13.30;70.80;;;;;;5079978;28;20024;-74
2022/09/29 04:23:34;;;;;;;4.20;3.03;;;13.20;70.80;;;;;;5093088;28;20070;-74
2022/09/29 04:26:01;;;;;;;4.25;3.40;;;13.20;70.90;;;;;;5093345;28;20035;-74
2022/09/29 04:28:29;;;;;;;4.95;3.28;;;13.10;71.00;;;;;;5093233;28;20513;-74
2022/09/29 04:30:55;;;;;;;5.43;3.60;;;13.10;71.10;;;;;;5082838;28;20070;-74
2022/09/29 04:33:21;;;;;;;4.72;3.22;;;13.10;71.20;;;;;;5073002;28;20020;-74
2022/09/29 04:35:46;;;;;;;4.15;3.53;;;13.00;71.20;;;;;;5071559;28;20032;-74
2022/09/29 04:38:12;;;;;;;5.18;3.92;;;13.00;71.30;;;;;;5072856;28;20078;-74
2022/09/29 04:40:38;;;;;;;6.13;3.70;;;12.90;71.40;;;;;;5072853;28;20025;-74
2022/09/29 04:43:04;;;;;;;6.40;3.90;;;12.90;71.40;;;;;;5072834;28;20497;-74
2022/09/29 04:45:31;;;;;;;6.15;3.80;;;12.90;71.40;;;;;;5071970;28;20072;-74
2022/09/29 04:47:56;;;;;;;5.75;4.03;;;12.90;71.60;;;;;;5087429;28;20521;-74
2022/09/29 04:50:23;;;;;;;9.93;4.05;;;12.80;71.80;;;;;;5091711;28;20146;-74
2022/09/29 04:52:49;;;;;;;7.53;3.97;;;12.80;72.10;;;;;;5092927;28;20077;-73
2022/09/29 04:55:15;;;;;;;4.07;3.58;;;12.90;72.40;;;;;;5092697;28;20028;-74
2022/09/29 04:57:42;;;;;;;6.03;3.53;;;12.90;72.60;;;;;;5092913;28;20048;-74
2022/09/29 05:00:09;;;;;;;3.80;3.40;;;12.90;72.60;;;;;;5092868;28;20020;-73
2022/09/29 05:02:35;;;;;;;7.22;3.83;;;12.90;72.60;;;;;;5091601;28;20024;-75
2022/09/29 05:05:02;;;;;;;7.85;3.85;;;12.90;72.60;;;;;;5092886;28;20024;-75
2022/09/29 05:07:28;;;;;;;11.90;8.43;;;13.00;72.60;;;;;;5086850;28;20035;-77
2022/09/29 05:09:54;;;;;;;8.52;6.95;;;13.00;72.60;;;;;;5072774;28;20016;-75
2022/09/29 05:12:20;;;;;;;8.30;5.80;;;13.00;72.40;;;;;;5072553;28;20074;-76
2022/09/29 05:14:46;;;;;;;7.22;5.07;;;13.00;72.20;;;;;;5071228;28;20025;-75
2022/09/29 05:17:12;;;;;;;6.32;5.32;;;13.00;72.00;;;;;;5072399;28;20025;-76
2022/09/29 05:19:38;;;;;;;7.88;5.50;;;13.00;71.90;;;;;;5078789;28;20012;-75
2022/09/29 05:22:05;;;;;;;8.40;6.45;;;13.00;71.80;;;;;;5092610;28;20051;-74
2022/09/29 05:24:31;;;;;;;6.60;5.72;;;12.90;71.70;;;;;;5092328;28;20396;-74
2022/09/29 05:26:56;;;;;;;6.65;5.15;;;12.90;71.60;;;;;;5092457;28;20036;-75
2022/09/29 05:29:22;;;;;;;6.55;5.20;;;12.90;71.60;;;;;;5092462;28;20381;-74
2022/09/29 05:31:49;;;;;;;8.80;5.57;;;12.90;71.70;;;;;;5078968;28;20028;-75
2022/09/29 05:34:15;;;;;;;7.10;5.88;;;12.90;71.90;;;;;;5072222;28;20028;-75
2022/09/29 05:36:41;;;;;;;5.47;4.68;;;12.80;72.10;;;;;;5073727;28;20507;-74
2022/09/29 05:39:07;;;;;;;5.00;4.50;;;12.90;72.30;;;;;;5092450;28;20077;-75
2022/09/29 05:41:33;;;;;;;5.95;5.10;;;12.90;72.40;;;;;;5092424;28;20044;-75
2022/09/29 05:44:00;;;;;;;5.07;4.28;;;12.90;72.30;;;;;;5092521;28;20495;-74
2022/09/29 05:46:26;;;;;;;5.65;4.65;;;12.80;72.10;;;;;;5093721;28;20051;-74
2022/09/29 05:48:52;;;;;;;9.55;5.07;;;12.80;71.90;;;;;;5093636;28;20028;-74
2022/09/29 05:51:22;;;;;;;6.07;4.38;;;12.80;71.80;;;;;;5082036;28;20429;-75
2022/09/29 05:53:48;;;;;;;9.18;4.97;;;12.80;71.80;;;;;;5081192;28;20455;-74
2022/09/29 05:56:17;;;;;;;8.02;4.63;;;12.80;71.80;;;;;;5082864;28;20070;-74
2022/09/29 05:58:44;;;;;;;8.68;5.10;;;12.80;71.70;;;;;;5085330;28;20031;-75
2022/09/29 06:01:13;;;;;;;6.47;4.75;;;12.80;71.60;;;;;;5084257;28;20358;-74
2022/09/29 06:03:39;;;;;;;7.32;4.80;;;12.70;71.60;;;;;;5083813;28;20025;-74
2022/09/29 06:06:12;;;;;;;6.38;4.47;;;12.70;71.60;;;;;;5083904;28;20028;-76
2022/09/29 06:08:39;;;;;;;13.05;4.75;;;12.70;71.70;;;;;;5084504;28;20028;-74
2022/09/29 06:11:07;;;;;;;7.13;4.47;;;12.70;71.80;;;;;;5090028;28;20017;-75
2022/09/29 06:13:36;;;;;;;5.30;3.88;;;12.70;71.90;;;;;;5085259;28;20474;-75
2022/09/29 06:16:01;;;;;;;7.50;4.70;;;12.70;72.00;;;;;;5085055;28;20363;-75
2022/09/29 06:18:27;;;;;;;8.95;4.63;;;12.70;72.00;;;;;;5088637;28;20064;-74
2022/09/29 06:20:58;;;;;;;4.60;3.92;;;12.70;72.10;;;;;;5083557;28;20047;-74
2022/09/29 06:23:24;;;;;;;6.68;4.38;;;12.80;72.30;;;;;;5076383;28;20028;-75
2022/09/29 06:25:55;;;;;;;9.73;4.03;;;12.80;72.40;;;;;;5092431;28;20032;-74
2022/09/29 06:28:21;;;;;;;4.40;3.92;;;12.80;73.20;;;;;;5095238;28;20024;-75
2022/09/29 06:30:47;;;;;;;12.55;4.70;;;12.80;72.30;;;;;;5096163;28;20376;-75
2022/09/29 06:33:13;;;;;;;4.63;3.90;;;12.90;72.30;;;;;;5095784;28;20557;-75
2022/09/29 06:38:30;;;;;;;5.07;4.15;;;12.90;72.50;;;;;;5095953;28;20035;-74
2022/09/29 06:40:55;;;;;;;7.38;4.47;;;13.00;72.60;;;;;;5095837;28;20020;-75
2022/09/29 06:43:21;;;;;;;7.45;4.53;;;13.00;72.10;;;;;;5094486;28;20030;-75
2022/09/29 06:45:47;;;;;;;4.93;3.83;;;13.00;71.50;;;;;;5095464;28;20467;-74
2022/09/29 06:48:13;;;;;;;5.65;3.83;;;13.10;71.50;;;;;;5095623;28;20103;-75
2022/09/29 06:50:39;;;;;;;5.00;4.20;;;13.10;71.60;;;;;;5095626;28;20055;-75
2022/09/29 06:53:04;;;;;;;5.35;3.78;;;13.20;71.10;;;;;;5095576;28;20466;-74
2022/09/29 06:55:30;;;;;;;5.88;4.45;;;13.20;70.70;;;;;;5095239;28;20101;-75
2022/09/29 06:57:56;;;;;;;6.32;5.07;;;13.30;71.00;;;;;;5095481;28;20034;-74
2022/09/29 07:00:22;;;;;;;9.48;5.65;;;13.30;71.10;;;;;;5096003;28;20028;-74
2022/09/29 07:02:48;;;;;;;8.00;6.22;;;13.40;71.10;;;;;;5097879;28;20028;-74
2022/09/29 07:05:15;;;;;;;6.32;5.65;;;13.50;70.90;;;;;;5095352;28;20366;-74
2022/09/29 07:07:41;;;;;;;10.38;6.20;;;13.60;71.10;;;;;;5097006;28;20428;-75
2022/09/29 07:10:08;;;;;;;7.72;5.47;;;13.60;71.10;;;;;;5094343;28;20416;-76
2022/09/29 07:12:34;;;;;;;7.03;5.85;;;13.70;71.00;;;;;;5094685;28;20030;-75
2022/09/29 07:15:00;;;;;;;8.88;6.40;;;13.80;71.00;;;;;;5095052;28;20028;-75
2022/09/29 07:17:26;;;;;;;10.48;6.60;;;13.90;71.00;;;;;;5093515;28;20407;-75
2022/09/29 07:19:55;;;;;;;10.65;6.72;;;14.00;70.90;;;;;;5093455;28;20024;-76
2022/09/29 07:22:22;;;;;;;9.82;5.55;;;14.10;70.60;;;;;;5099595;28;20038;-75
2022/09/29 07:24:49;;;;;;;7.82;5.78;;;14.20;70.50;;;;;;5104353;28;20357;-75
2022/09/29 07:27:20;;;;;;;10.77;5.47;;;14.20;71.40;;;;;;5110441;28;20035;-75
2022/09/29 07:29:45;;;;;;;10.20;7.43;;;14.40;71.10;;;;;;5095370;28;20488;-75
2022/09/29 07:32:11;;;;;;;11.05;7.72;;;14.50;70.40;;;;;;5093441;28;20024;-75
2022/09/29 07:34:37;;;;;;;9.40;6.90;;;14.70;69.60;;;;;;5094686;28;20389;-75
2022/09/29 07:37:03;;;;;;;10.95;7.78;;;14.80;69.40;;;;;;5090085;28;20032;-75
2022/09/29 07:39:28;;;;;;;9.30;6.85;;;14.90;68.80;;;;;;5091846;28;20028;-75
2022/09/29 07:41:55;;;;;;;15.35;10.38;;;15.00;68.30;;;;;;5094158;28;20020;-75
2022/09/29 07:44:21;;;;;;;20.73;13.60;;;15.10;68.20;;;;;;5094237;28;20026;-75
2022/09/29 07:46:48;;;;;;;19.30;13.45;;;15.20;68.10;;;;;;5094086;28;20408;-76
2022/09/29 07:49:15;;;;;;;23.95;15.57;;;15.30;68.30;;;;;;5094172;28;20016;-73
2022/09/29 07:51:41;;;;;;;44.67;28.75;;;15.50;68.00;;;;;;5092840;28;20046;-73
2022/09/29 07:54:07;;;;;;;39.25;25.30;;;15.70;67.40;;;;;;5093850;28;20031;-74
2022/09/29 07:56:34;;;;;;;32.42;21.83;;;15.90;67.60;;;;;;5089212;28;20381;-74
2022/09/29 07:59:01;;;;;;;31.25;20.85;;;16.10;66.40;;;;;;5093970;28;20036;-74
2022/09/29 08:01:27;;;;;;;38.03;22.88;;;16.30;66.00;;;;;;5092707;28;20111;-74
2022/09/29 08:03:54;;;;;;;39.03;26.08;;;16.40;65.80;;;;;;5093894;28;20020;-74
2022/09/29 08:06:22;;;;;;;23.38;16.27;;;16.60;65.30;;;;;;5093809;28;20020;-76
2022/09/29 08:08:48;;;;;;;25.05;12.95;;;16.70;62.50;;;;;;5093965;28;20043;-74
2022/09/29 08:11:19;;;;;;;17.35;11.00;;;16.70;61.00;;;;;;5092853;28;20466;-73
2022/09/29 08:13:45;;;;;;;13.73;8.70;;;16.70;61.50;;;;;;5076873;28;20024;-75
2022/09/29 08:16:13;;;;;;;14.40;8.20;;;16.70;60.90;;;;;;5086107;28;20042;-75
2022/09/29 08:18:40;;;;;;;11.38;8.15;;;16.70;60.90;;;;;;5092336;28;20023;-73
2022/09/29 08:21:06;;;;;;;11.82;8.75;;;16.70;60.50;;;;;;5093618;28;20028;-74
2022/09/29 08:23:39;;;;;;;12.65;8.90;;;16.70;61.00;;;;;;5093657;28;20032;-74
2022/09/29 08:26:14;;;;;;;13.00;8.73;;;16.70;60.40;;;;;;5093329;28;20020;-73
2022/09/29 08:28:40;;;;;;;13.50;7.78;;;16.70;61.30;;;;;;5093354;28;20043;-74
2022/09/29 08:31:09;;;;;;;9.95;7.38;;;16.70;60.50;;;;;;5093417;28;20020;-73
2022/09/29 08:33:36;;;;;;;17.00;7.93;;;16.70;60.20;;;;;;5093407;28;20534;-73
2022/09/29 08:36:04;;;;;;;8.63;6.53;;;16.80;60.70;;;;;;5109027;28;20312;-74
2022/09/29 08:38:31;;;;;;;11.90;6.25;;;16.80;60.90;;;;;;5093220;28;20020;-75
2022/09/29 08:41:03;;;;;;;14.65;7.38;;;16.80;60.90;;;;;;5096069;28;20112;-75
2022/09/29 08:43:37;;;;;;;10.30;6.93;;;16.80;59.70;;;;;;5071761;28;20032;-75
2022/09/29 08:46:31;;;;;;;8.40;5.93;;;16.80;59.20;;;;;;5072774;28;20494;-75
2022/09/29 08:49:02;;;;;;;9.43;5.93;;;16.80;59.30;;;;;;5072940;28;20618;-74
2022/09/29 08:51:36;;;;;;;9.85;5.93;;;16.80;58.60;;;;;;5072788;28;20442;-75
2022/09/29 08:54:10;;;;;;;9.20;5.85;;;16.80;58.40;;;;;;5073887;28;20105;-77
2022/09/29 08:56:35;;;;;;;9.45;5.78;;;16.80;57.80;;;;;;5087993;28;20027;-77
2022/09/29 08:59:01;;;;;;;12.60;6.00;;;16.80;57.60;;;;;;5092990;28;20378;-74
2022/09/29 09:01:53;;;;;;;11.23;6.70;;;16.80;58.40;;;;;;5092843;28;20022;-74
2022/09/29 09:04:22;;;;;;;8.65;6.05;;;16.80;58.70;;;;;;5090682;28;20046;-73
2022/09/29 09:07:04;;;;;;;8.40;5.72;;;17.00;58.40;;;;;;5108460;28;20024;-75
2022/09/29 09:09:51;;;;;;;6.47;4.78;;;16.90;57.40;;;;;;5091544;28;20422;-74
2022/09/29 09:12:25;;;;;;;6.72;5.18;;;17.00;57.40;;;;;;5092384;28;20099;-75
2022/09/29 09:15:14;;;;;;;6.55;4.90;;;17.00;57.30;;;;;;5092754;28;20024;-74
2022/09/29 09:17:58;;;;;;;6.47;4.75;;;17.00;57.90;;;;;;5092851;28;20039;-75
2022/09/29 09:20:35;;;;;;;6.10;4.43;;;17.10;57.50;;;;;;5092930;28;20016;-75
2022/09/29 09:23:20;;;;;;;5.75;4.60;;;17.10;57.10;;;;;;5092877;28;20377;-75
2022/09/29 09:25:57;;;;;;;5.60;4.25;;;17.00;57.20;;;;;;5092374;28;20024;-74
2022/09/29 09:28:33;;;;;;;4.43;3.72;;;17.10;56.90;;;;;;5092893;28;20024;-75
2022/09/29 09:31:06;;;;;;;7.18;4.28;;;17.10;56.70;;;;;;5091455;28;20542;-76
2022/09/29 09:33:38;;;;;;;5.63;4.28;;;17.20;57.00;;;;;;5094609;28;20431;-75
2022/09/29 09:36:20;;;;;;;5.97;3.92;;;17.20;56.60;;;;;;5097202;28;20047;-76
2022/09/29 09:39:00;;;;;;;5.38;3.65;;;17.30;56.70;;;;;;5097071;28;20020;-78
2022/09/29 09:41:28;;;;;;;7.38;4.80;;;17.40;57.50;;;;;;5096578;28;20028;-80
2022/09/29 09:44:08;;;;;;;6.38;4.50;;;17.50;57.20;;;;;;5098040;28;20107;-84
2022/09/29 09:46:40;;;;;;;6.03;4.65;;;17.60;56.90;;;;;;5097380;28;20044;-81
2022/09/29 09:49:25;;;;;;;5.45;4.03;;;17.70;57.50;;;;;;5097695;28;20032;-83
2022/09/29 09:51:59;;;;;;;10.18;5.03;;;17.80;57.60;;;;;;5097971;28;20051;-80
2022/09/29 09:54:41;;;;;;;5.57;3.92;;;17.90;57.20;;;;;;5096789;28;20012;-83
2022/09/29 09:57:19;;;;;;;7.68;4.55;;;18.00;56.90;;;;;;5096567;28;20024;-78
2022/09/29 09:59:56;;;;;;;5.10;4.00;;;18.20;56.60;;;;;;5112307;28;20028;-78
2022/09/29 10:02:23;;;;;;;4.85;3.50;;;18.30;56.70;;;;;;5096672;28;20035;-77
2022/09/29 10:04:53;;;;;;;4.57;3.38;;;18.30;56.30;;;;;;5096483;28;20028;-80
2022/09/29 10:07:21;;;;;;;5.93;3.65;;;18.50;56.60;;;;;;5096676;28;20220;-81
2022/09/29 10:09:47;;;;;;;4.93;2.83;;;18.60;56.00;;;;;;5112050;28;20024;-81
2022/09/29 10:12:23;;;;;;;3.97;3.17;;;18.70;54.90;;;;;;5096291;28;20373;-83
2022/09/29 10:15:13;;;;;;;2.80;2.40;;;18.80;55.00;;;;;;5095186;28;20027;-82
2022/09/29 10:17:45;;;;;;;2.28;2.08;;;18.90;55.00;;;;;;5096206;28;20028;-81
2022/09/29 10:20:11;;;;;;;5.43;2.47;;;19.00;54.60;;;;;;5095139;28;20216;-80
2022/09/29 10:22:38;;;;;;;5.82;2.92;;;19.10;54.10;;;;;;5089234;28;20101;-80
2022/09/29 10:25:18;;;;;;;1.73;1.58;;;19.20;53.30;;;;;;5086131;28;20557;-80
2022/09/29 10:27:49;;;;;;;2.60;1.55;;;19.20;51.90;;;;;;5106561;28;20133;-81
2022/09/29 10:30:22;;;;;;;3.28;1.50;;;19.30;51.40;;;;;;5095754;28;20024;-79
2022/09/29 10:32:50;;;;;;;5.35;1.50;;;19.30;50.30;;;;;;5112684;28;20020;-79
2022/09/29 10:35:21;;;;;;;4.10;1.10;;;19.30;51.60;;;;;;5099107;28;20473;-83
2022/09/29 10:37:53;;;;;;;1.92;1.20;;;19.30;48.50;;;;;;5107301;28;20043;-81
2022/09/29 10:40:22;;;;;;;1.67;1.10;;;19.30;49.20;;;;;;5096146;28;20073;-77
2022/09/29 10:42:50;;;;;;;1.85;1.08;;;19.30;49.10;;;;;;5095991;28;20038;-75
2022/09/29 10:45:16;;;;;;;3.67;1.35;;;19.30;50.10;;;;;;5097499;28;20038;-81
2022/09/29 10:47:47;;;;;;;2.97;1.42;;;19.30;49.20;;;;;;5108712;28;20024;-80
2022/09/29 10:50:18;;;;;;;2.03;1.40;;;19.30;49.50;;;;;;5106983;28;20419;-80
2022/09/29 10:52:58;;;;;;;1.33;1.13;;;19.30;49.60;;;;;;5100250;28;20070;-83
2022/09/29 10:55:30;;;;;;;6.05;0.98;;;19.30;49.90;;;;;;5088319;28;20012;-80
2022/09/29 10:58:18;;;;;;;1.40;0.98;;;19.30;49.70;;;;;;5095238;28;20121;-79
2022/09/29 11:00:46;;;;;;;2.70;1.20;;;19.30;48.90;;;;;;5094047;28;20106;-76
2022/09/29 11:03:27;;;;;;;2.05;1.10;;;19.30;48.10;;;;;;5095793;28;20016;-80
2022/09/29 11:06:10;;;;;;;1.90;1.30;;;19.30;47.80;;;;;;5095595;28;20048;-80
2022/09/29 11:09:03;;;;;;;2.22;1.20;;;19.30;47.90;;;;;;5094526;28;20119;-78
2022/09/29 11:11:30;;;;;;;2.35;1.48;;;19.30;48.70;;;;;;5100941;28;20421;-77
2022/09/29 11:13:58;;;;;;;1.73;1.35;;;19.30;47.30;;;;;;5101876;28;20024;-76
2022/09/29 11:16:30;;;;;;;1.33;1.00;;;19.30;46.90;;;;;;5096290;28;20504;-81
2022/09/29 11:19:08;;;;;;;1.77;1.20;;;19.20;47.00;;;;;;5095298;28;20031;-80
2022/09/29 11:22:02;;;;;;;2.15;1.35;;;19.20;47.30;;;;;;5095268;28;20024;-81
2022/09/29 11:24:53;;;;;;;3.17;1.45;;;19.20;47.70;;;;;;5093861;28;20028;-76
2022/09/29 11:27:32;;;;;;;3.03;1.00;;;19.20;47.60;;;;;;5095309;28;20028;-83
2022/09/29 11:29:58;;;;;;;1.40;1.20;;;19.20;47.20;;;;;;5095251;28;20024;-82
2022/09/29 11:32:33;;;;;;;2.65;1.75;;;19.20;47.90;;;;;;5093855;28;20016;-77
2022/09/29 11:35:15;;;;;;;2.03;1.67;;;19.20;48.30;;;;;;5095062;28;20508;-79
2022/09/29 11:38:20;;;;;;;2.92;1.52;;;19.20;48.50;;;;;;5095631;28;20466;-82
2022/09/29 11:40:59;;;;;;;5.30;2.20;;;19.20;48.10;;;;;;5094380;28;20024;-82
2022/09/29 11:43:38;;;;;;;2.35;1.95;;;19.20;48.30;;;;;;5095295;28;20027;-81
2022/09/29 11:46:44;;;;;;;3.88;2.20;;;19.30;47.70;;;;;;5094302;28;20543;-78
2022/09/29 11:49:22;;;;;;;5.65;3.17;;;19.20;47.80;;;;;;5094183;28;20487;-78
2022/09/29 11:52:16;;;;;;;3.33;2.10;;;19.20;48.00;;;;;;5093646;28;20446;-79
2022/09/29 11:54:58;;;;;;;5.53;3.13;;;19.20;48.40;;;;;;5094914;28;20366;-77
2022/09/29 11:57:54;;;;;;;5.97;3.08;;;19.30;47.90;;;;;;5096324;28;20069;-80
2022/09/29 12:00:46;;;;;;;8.68;2.70;;;19.20;48.50;;;;;;5096685;28;20466;-76
2022/09/29 12:03:19;;;;;;;2.95;2.10;;;19.20;48.40;;;;;;5066461;28;20148;-84
2022/09/29 12:05:48;;;;;;;2.45;1.85;;;19.30;48.70;;;;;;5096430;28;20020;-80
2022/09/29 12:08:20;;;;;;;2.10;1.63;;;19.30;48.50;;;;;;5095344;28;20027;-77
2022/09/29 12:11:09;;;;;;;3.92;2.20;;;19.30;48.80;;;;;;5095549;28;20031;-75
2022/09/29 12:13:47;;;;;;;2.72;2.17;;;19.30;48.50;;;;;;5097021;28;20016;-78
2022/09/29 12:16:20;;;;;;;4.80;2.60;;;19.40;49.40;;;;;;5095371;28;20043;-82
2022/09/29 12:19:01;;;;;;;3.22;1.65;;;19.50;49.40;;;;;;5094733;28;20473;-79
2022/09/29 12:21:59;;;;;;;3.80;1.35;;;19.50;48.40;;;;;;5093377;28;20433;-81
2022/09/29 12:24:33;;;;;;;3.60;1.80;;;19.60;48.60;;;;;;5071992;28;20155;-82
2022/09/29 12:27:03;;;;;;;1.90;1.63;;;19.60;47.10;;;;;;5055792;28;20182;-79
2022/09/29 12:29:53;;;;;;;1.83;1.55;;;19.60;47.40;;;;;;5072844;28;20061;-80
2022/09/29 12:32:27;;;;;;;3.33;1.70;;;19.60;48.30;;;;;;5056027;28;20025;-81
2022/09/29 12:35:10;;;;;;;2.25;1.80;;;19.60;48.60;;;;;;5072206;28;20025;-83
2022/09/29 12:37:48;;;;;;;2.92;2.00;;;19.70;48.90;;;;;;5071849;28;20028;-83
2022/09/29 12:40:32;;;;;;;3.95;2.30;;;19.70;49.00;;;;;;5071943;28;20482;-78
2022/09/29 12:43:16;;;;;;;2.60;1.98;;;19.80;48.30;;;;;;5072210;28;20040;-79
2022/09/29 12:45:51;;;;;;;2.50;1.50;;;19.80;48.50;;;;;;5054794;28;20577;-81
2022/09/29 12:48:42;;;;;;;2.13;1.63;;;19.90;48.80;;;;;;5071799;28;20448;-80
2022/09/29 12:51:28;;;;;;;1.80;1.50;;;20.00;48.80;;;;;;5054962;28;20020;-81
2022/09/29 12:54:20;;;;;;;3.42;1.70;;;20.20;48.70;;;;;;5071751;28;20033;-79
2022/09/29 12:57:17;;;;;;;2.45;1.85;;;20.40;48.50;;;;;;5069712;28;20028;-80
2022/09/29 13:00:04;;;;;;;3.80;2.10;;;20.70;48.30;;;;;;5024214;28;20065;-81
2022/09/29 13:02:52;;;;;;;8.10;2.00;;;20.90;47.70;;;;;;5033471;28;20025;-82
2022/09/29 13:05:40;;;;;;;2.97;1.67;;;21.10;46.90;;;;;;5033479;28;20424;-81
2022/09/29 13:08:24;;;;;;;3.85;1.70;;;21.30;47.30;;;;;;5036381;28;20079;-80
2022/09/29 13:11:08;;;;;;;2.78;1.88;;;21.40;46.80;;;;;;5053479;28;20021;-80
2022/09/29 13:13:43;;;;;;;3.30;1.85;;;21.50;46.60;;;;;;5053220;28;20049;-82
2022/09/29 13:16:37;;;;;;;4.05;2.58;;;21.70;46.80;;;;;;5053090;28;20094;-79